Providence, Rhode Island
Traffic Map
Current Weather Conditions
Providence, Rhode Island
Overcast Light Rain
Overcast
37°
Feels Like: 32°
Wind Chill: 32° Ceiling: 10000
Heat Index: 37° Visibility: 10mi
Dew Point: 33° Wind: 6mph
Humidity: 86% Direction: 240° (WSW)
Pressure: 29.76in Gusts: 0mph
Raw Report DataKPVD 041251Z 24005KT 10SM -RA SCT012 SCT055 OVC100 03/01 A2976 RMK AO2 SLP076 P0001 T00280006
Traffic Incident Summary
Active as of:
Severity:
Category:
InformationThere was an issue retrieving the traffic information for this location. Please try a different location or try again shortly.
Advertisements
Track Severe Weather on mobile